sensor_id;sensor_type;location;lat;lon;timestamp;P1;durP1;ratioP1;P2;durP2;ratioP2
41532;SDS011;27262;-35.248;149.138;2022-12-18T00:01:35;6.90;;;1.13;;
41532;SDS011;27262;-35.248;149.138;2022-12-18T00:04:06;5.60;;;0.80;;
41532;SDS011;27262;-35.248;149.138;2022-12-18T00:06:44;4.25;;;1.17;;
41532;SDS011;27262;-35.248;149.138;2022-12-18T00:09:15;6.50;;;1.30;;
41532;SDS011;27262;-35.248;149.138;2022-12-18T00:11:45;4.55;;;1.08;;
41532;SDS011;27262;-35.248;149.138;2022-12-18T00:14:16;6.70;;;1.40;;
41532;SDS011;27262;-35.248;149.138;2022-12-18T00:16:46;7.75;;;1.55;;
41532;SDS011;27262;-35.248;149.138;2022-12-18T00:19:17;4.07;;;0.95;;
41532;SDS011;27262;-35.248;149.138;2022-12-18T00:21:47;4.10;;;0.98;;
41532;SDS011;27262;-35.248;149.138;2022-12-18T00:24:17;5.70;;;0.90;;
41532;SDS011;27262;-35.248;149.138;2022-12-18T00:26:48;4.80;;;1.20;;
41532;SDS011;27262;-35.248;149.138;2022-12-18T00:29:18;3.53;;;0.60;;
41532;SDS011;27262;-35.248;149.138;2022-12-18T00:31:48;4.18;;;0.85;;
41532;SDS011;27262;-35.248;149.138;2022-12-18T00:34:18;5.38;;;0.80;;
41532;SDS011;27262;-35.248;149.138;2022-12-18T00:36:49;2.75;;;0.95;;
41532;SDS011;27262;-35.248;149.138;2022-12-18T00:39:19;5.85;;;1.20;;
41532;SDS011;27262;-35.248;149.138;2022-12-18T00:41:49;5.47;;;0.68;;
41532;SDS011;27262;-35.248;149.138;2022-12-18T00:44:39;4.85;;;0.80;;
41532;SDS011;27262;-35.248;149.138;2022-12-18T00:47:09;3.78;;;0.70;;
41532;SDS011;27262;-35.248;149.138;2022-12-18T00:49:39;4.95;;;0.90;;
41532;SDS011;27262;-35.248;149.138;2022-12-18T00:52:09;3.92;;;0.82;;
41532;SDS011;27262;-35.248;149.138;2022-12-18T00:54:39;2.33;;;0.65;;
41532;SDS011;27262;-35.248;149.138;2022-12-18T00:57:10;3.22;;;0.55;;
41532;SDS011;27262;-35.248;149.138;2022-12-18T00:59:40;5.18;;;1.05;;
41532;SDS011;27262;-35.248;149.138;2022-12-18T01:02:14;3.95;;;0.88;;
41532;SDS011;27262;-35.248;149.138;2022-12-18T01:04:45;2.50;;;0.70;;
41532;SDS011;27262;-35.248;149.138;2022-12-18T01:07:15;2.00;;;0.68;;
41532;SDS011;27262;-35.248;149.138;2022-12-18T01:09:45;7.22;;;1.08;;
41532;SDS011;27262;-35.248;149.138;2022-12-18T01:12:15;1.92;;;0.45;;
41532;SDS011;27262;-35.248;149.138;2022-12-18T01:14:46;3.35;;;0.50;;
41532;SDS011;27262;-35.248;149.138;2022-12-18T01:17:16;1.90;;;0.38;;
41532;SDS011;27262;-35.248;149.138;2022-12-18T01:19:46;3.63;;;0.60;;
41532;SDS011;27262;-35.248;149.138;2022-12-18T01:22:17;2.38;;;0.68;;
41532;SDS011;27262;-35.248;149.138;2022-12-18T01:24:47;2.13;;;0.63;;
41532;SDS011;27262;-35.248;149.138;2022-12-18T01:27:17;1.85;;;0.43;;
41532;SDS011;27262;-35.248;149.138;2022-12-18T01:29:49;4.38;;;0.60;;
41532;SDS011;27262;-35.248;149.138;2022-12-18T01:32:19;3.38;;;0.82;;
41532;SDS011;27262;-35.248;149.138;2022-12-18T01:34:50;2.45;;;0.32;;
41532;SDS011;27262;-35.248;149.138;2022-12-18T01:37:20;2.50;;;0.60;;
41532;SDS011;27262;-35.248;149.138;2022-12-18T01:39:52;3.17;;;0.60;;
41532;SDS011;27262;-35.248;149.138;2022-12-18T01:42:23;1.80;;;0.63;;
41532;SDS011;27262;-35.248;149.138;2022-12-18T01:44:56;2.05;;;0.50;;
41532;SDS011;27262;-35.248;149.138;2022-12-18T01:47:37;1.17;;;0.40;;
41532;SDS011;27262;-35.248;149.138;2022-12-18T01:50:25;1.23;;;0.40;;
41532;SDS011;27262;-35.248;149.138;2022-12-18T01:53:02;5.32;;;0.88;;
41532;SDS011;27262;-35.248;149.138;2022-12-18T01:55:38;4.78;;;0.70;;
41532;SDS011;27262;-35.248;149.138;2022-12-18T01:58:19;2.10;;;0.40;;
41532;SDS011;27262;-35.248;149.138;2022-12-18T02:00:54;1.42;;;0.30;;
41532;SDS011;27262;-35.248;149.138;2022-12-18T02:03:25;1.30;;;0.40;;
41532;SDS011;27262;-35.248;149.138;2022-12-18T02:11:49;1.02;;;0.25;;
41532;SDS011;27262;-35.248;149.138;2022-12-18T02:14:37;1.10;;;0.47;;
41532;SDS011;27262;-35.248;149.138;2022-12-18T02:17:20;1.45;;;0.43;;
41532;SDS011;27262;-35.248;149.138;2022-12-18T02:23:00;1.23;;;0.28;;
41532;SDS011;27262;-35.248;149.138;2022-12-18T02:28:32;2.30;;;0.55;;
41532;SDS011;27262;-35.248;149.138;2022-12-18T02:31:11;1.63;;;0.40;;
41532;SDS011;27262;-35.248;149.138;2022-12-18T02:33:44;2.22;;;0.40;;
41532;SDS011;27262;-35.248;149.138;2022-12-18T02:36:16;2.08;;;0.50;;
41532;SDS011;27262;-35.248;149.138;2022-12-18T02:38:49;1.55;;;0.30;;
41532;SDS011;27262;-35.248;149.138;2022-12-18T02:41:24;2.47;;;0.75;;
41532;SDS011;27262;-35.248;149.138;2022-12-18T02:43:57;3.80;;;0.50;;
41532;SDS011;27262;-35.248;149.138;2022-12-18T02:46:38;4.75;;;0.60;;
41532;SDS011;27262;-35.248;149.138;2022-12-18T02:49:32;4.82;;;0.50;;
41532;SDS011;27262;-35.248;149.138;2022-12-18T02:55:28;3.40;;;0.98;;
41532;SDS011;27262;-35.248;149.138;2022-12-18T03:07:15;1.48;;;0.50;;
41532;SDS011;27262;-35.248;149.138;2022-12-18T03:09:50;3.83;;;0.50;;
41532;SDS011;27262;-35.248;149.138;2022-12-18T03:12:32;1.67;;;0.40;;
41532;SDS011;27262;-35.248;149.138;2022-12-18T03:17:57;2.40;;;0.38;;
41532;SDS011;27262;-35.248;149.138;2022-12-18T03:20:35;1.30;;;0.40;;
41532;SDS011;27262;-35.248;149.138;2022-12-18T03:23:09;3.65;;;0.57;;
41532;SDS011;27262;-35.248;149.138;2022-12-18T03:25:44;3.00;;;0.47;;
41532;SDS011;27262;-35.248;149.138;2022-12-18T03:28:16;1.42;;;0.40;;
41532;SDS011;27262;-35.248;149.138;2022-12-18T03:30:52;3.38;;;0.45;;
41532;SDS011;27262;-35.248;149.138;2022-12-18T03:34:11;1.00;;;0.38;;
41532;SDS011;27262;-35.248;149.138;2022-12-18T03:36:25;4.05;;;0.60;;
41532;SDS011;27262;-35.248;149.138;2022-12-18T03:38:56;3.60;;;0.30;;
41532;SDS011;27262;-35.248;149.138;2022-12-18T03:46:47;2.83;;;0.50;;
41532;SDS011;27262;-35.248;149.138;2022-12-18T03:49:24;1.60;;;0.40;;
41532;SDS011;27262;-35.248;149.138;2022-12-18T03:52:13;0.73;;;0.40;;
41532;SDS011;27262;-35.248;149.138;2022-12-18T03:54:57;2.95;;;0.40;;
41532;SDS011;27262;-35.248;149.138;2022-12-18T03:57:31;1.33;;;0.30;;
41532;SDS011;27262;-35.248;149.138;2022-12-18T04:00:09;2.78;;;0.30;;
41532;SDS011;27262;-35.248;149.138;2022-12-18T04:02:44;0.38;;;0.28;;
41532;SDS011;27262;-35.248;149.138;2022-12-18T04:05:20;2.08;;;0.40;;
41532;SDS011;27262;-35.248;149.138;2022-12-18T04:07:53;1.17;;;0.32;;
41532;SDS011;27262;-35.248;149.138;2022-12-18T04:10:25;0.40;;;0.30;;
41532;SDS011;27262;-35.248;149.138;2022-12-18T04:12:56;0.55;;;0.40;;
41532;SDS011;27262;-35.248;149.138;2022-12-18T04:15:26;0.73;;;0.30;;
41532;SDS011;27262;-35.248;149.138;2022-12-18T04:17:57;1.02;;;0.40;;
41532;SDS011;27262;-35.248;149.138;2022-12-18T04:20:27;0.10;;;0.10;;
41532;SDS011;27262;-35.248;149.138;2022-12-18T04:22:57;2.47;;;0.20;;
41532;SDS011;27262;-35.248;149.138;2022-12-18T04:25:27;0.75;;;0.13;;
41532;SDS011;27262;-35.248;149.138;2022-12-18T04:27:58;0.95;;;0.13;;
41532;SDS011;27262;-35.248;149.138;2022-12-18T04:30:28;0.40;;;0.22;;
41532;SDS011;27262;-35.248;149.138;2022-12-18T04:32:58;0.50;;;0.20;;
41532;SDS011;27262;-35.248;149.138;2022-12-18T04:35:28;0.63;;;0.20;;
41532;SDS011;27262;-35.248;149.138;2022-12-18T04:37:59;0.25;;;0.20;;
41532;SDS011;27262;-35.248;149.138;2022-12-18T04:40:30;0.22;;;0.20;;
41532;SDS011;27262;-35.248;149.138;2022-12-18T04:43:00;0.60;;;0.20;;
41532;SDS011;27262;-35.248;149.138;2022-12-18T04:45:31;0.43;;;0.30;;
41532;SDS011;27262;-35.248;149.138;2022-12-18T04:48:02;0.45;;;0.30;;
41532;SDS011;27262;-35.248;149.138;2022-12-18T04:50:33;0.55;;;0.13;;
41532;SDS011;27262;-35.248;149.138;2022-12-18T04:53:04;0.20;;;0.20;;
41532;SDS011;27262;-35.248;149.138;2022-12-18T04:55:34;2.10;;;0.30;;
41532;SDS011;27262;-35.248;149.138;2022-12-18T04:58:04;2.47;;;0.30;;
41532;SDS011;27262;-35.248;149.138;2022-12-18T05:00:35;2.17;;;0.20;;
41532;SDS011;27262;-35.248;149.138;2022-12-18T05:03:05;0.40;;;0.20;;
41532;SDS011;27262;-35.248;149.138;2022-12-18T05:05:36;0.40;;;0.20;;
41532;SDS011;27262;-35.248;149.138;2022-12-18T05:08:06;1.10;;;0.30;;
41532;SDS011;27262;-35.248;149.138;2022-12-18T05:10:37;0.70;;;0.25;;
41532;SDS011;27262;-35.248;149.138;2022-12-18T05:13:07;3.17;;;0.40;;
41532;SDS011;27262;-35.248;149.138;2022-12-18T05:15:38;2.10;;;0.38;;
41532;SDS011;27262;-35.248;149.138;2022-12-18T05:18:08;1.50;;;0.82;;
41532;SDS011;27262;-35.248;149.138;2022-12-18T05:20:38;1.60;;;0.50;;
41532;SDS011;27262;-35.248;149.138;2022-12-18T05:23:09;0.77;;;0.40;;
41532;SDS011;27262;-35.248;149.138;2022-12-18T05:25:39;1.52;;;0.40;;
41532;SDS011;27262;-35.248;149.138;2022-12-18T05:28:10;0.50;;;0.30;;
41532;SDS011;27262;-35.248;149.138;2022-12-18T05:30:41;1.75;;;0.30;;
41532;SDS011;27262;-35.248;149.138;2022-12-18T05:33:11;1.10;;;0.30;;
41532;SDS011;27262;-35.248;149.138;2022-12-18T05:35:42;3.78;;;0.30;;
41532;SDS011;27262;-35.248;149.138;2022-12-18T05:38:13;4.05;;;0.30;;
41532;SDS011;27262;-35.248;149.138;2022-12-18T05:40:44;0.90;;;0.28;;
41532;SDS011;27262;-35.248;149.138;2022-12-18T05:43:15;1.23;;;0.57;;
41532;SDS011;27262;-35.248;149.138;2022-12-18T05:45:47;0.55;;;0.30;;
41532;SDS011;27262;-35.248;149.138;2022-12-18T05:48:19;2.35;;;0.30;;
41532;SDS011;27262;-35.248;149.138;2022-12-18T05:50:50;2.25;;;0.35;;
41532;SDS011;27262;-35.248;149.138;2022-12-18T05:53:21;4.63;;;0.50;;
41532;SDS011;27262;-35.248;149.138;2022-12-18T05:55:51;2.40;;;0.50;;
41532;SDS011;27262;-35.248;149.138;2022-12-18T05:58:22;2.13;;;0.45;;
41532;SDS011;27262;-35.248;149.138;2022-12-18T06:00:52;0.70;;;0.20;;
41532;SDS011;27262;-35.248;149.138;2022-12-18T06:03:22;3.50;;;0.40;;
41532;SDS011;27262;-35.248;149.138;2022-12-18T06:05:59;0.75;;;0.20;;
41532;SDS011;27262;-35.248;149.138;2022-12-18T06:08:30;1.88;;;0.30;;
41532;SDS011;27262;-35.248;149.138;2022-12-18T06:11:00;0.50;;;0.20;;
41532;SDS011;27262;-35.248;149.138;2022-12-18T06:13:30;0.50;;;0.30;;
41532;SDS011;27262;-35.248;149.138;2022-12-18T06:16:04;0.20;;;0.20;;
41532;SDS011;27262;-35.248;149.138;2022-12-18T06:18:35;0.60;;;0.30;;
41532;SDS011;27262;-35.248;149.138;2022-12-18T06:21:05;3.53;;;0.40;;
41532;SDS011;27262;-35.248;149.138;2022-12-18T06:23:35;1.05;;;0.32;;
41532;SDS011;27262;-35.248;149.138;2022-12-18T06:26:07;0.90;;;0.17;;
41532;SDS011;27262;-35.248;149.138;2022-12-18T06:28:42;0.68;;;0.20;;
41532;SDS011;27262;-35.248;149.138;2022-12-18T06:31:13;0.17;;;0.17;;
41532;SDS011;27262;-35.248;149.138;2022-12-18T06:33:43;0.65;;;0.20;;
41532;SDS011;27262;-35.248;149.138;2022-12-18T06:36:14;1.65;;;0.20;;
41532;SDS011;27262;-35.248;149.138;2022-12-18T06:38:45;0.20;;;0.20;;
41532;SDS011;27262;-35.248;149.138;2022-12-18T06:41:19;0.30;;;0.20;;
41532;SDS011;27262;-35.248;149.138;2022-12-18T06:43:50;0.50;;;0.30;;
41532;SDS011;27262;-35.248;149.138;2022-12-18T06:46:25;0.98;;;0.30;;
41532;SDS011;27262;-35.248;149.138;2022-12-18T06:48:56;0.43;;;0.20;;
41532;SDS011;27262;-35.248;149.138;2022-12-18T06:51:26;0.57;;;0.17;;
41532;SDS011;27262;-35.248;149.138;2022-12-18T06:53:56;4.20;;;0.30;;
41532;SDS011;27262;-35.248;149.138;2022-12-18T06:56:27;0.20;;;0.20;;
41532;SDS011;27262;-35.248;149.138;2022-12-18T06:58:57;1.08;;;0.25;;
41532;SDS011;27262;-35.248;149.138;2022-12-18T07:01:27;0.60;;;0.30;;
41532;SDS011;27262;-35.248;149.138;2022-12-18T07:03:58;0.28;;;0.20;;
41532;SDS011;27262;-35.248;149.138;2022-12-18T07:06:28;0.20;;;0.20;;
41532;SDS011;27262;-35.248;149.138;2022-12-18T07:08:58;2.75;;;0.28;;
41532;SDS011;27262;-35.248;149.138;2022-12-18T07:11:29;0.90;;;0.20;;
41532;SDS011;27262;-35.248;149.138;2022-12-18T07:14:01;3.47;;;0.40;;
41532;SDS011;27262;-35.248;149.138;2022-12-18T07:16:31;2.38;;;0.40;;
41532;SDS011;27262;-35.248;149.138;2022-12-18T07:19:02;2.83;;;0.65;;
41532;SDS011;27262;-35.248;149.138;2022-12-18T07:21:32;2.20;;;0.50;;
41532;SDS011;27262;-35.248;149.138;2022-12-18T07:24:03;0.95;;;0.20;;
41532;SDS011;27262;-35.248;149.138;2022-12-18T07:26:33;1.85;;;0.30;;
41532;SDS011;27262;-35.248;149.138;2022-12-18T07:29:03;0.57;;;0.20;;
41532;SDS011;27262;-35.248;149.138;2022-12-18T07:31:34;3.30;;;0.40;;
41532;SDS011;27262;-35.248;149.138;2022-12-18T07:34:04;2.35;;;0.30;;
41532;SDS011;27262;-35.248;149.138;2022-12-18T07:36:38;1.35;;;0.28;;
41532;SDS011;27262;-35.248;149.138;2022-12-18T07:39:10;0.25;;;0.20;;
41532;SDS011;27262;-35.248;149.138;2022-12-18T07:41:40;1.73;;;0.20;;
41532;SDS011;27262;-35.248;149.138;2022-12-18T07:44:14;1.08;;;0.22;;
41532;SDS011;27262;-35.248;149.138;2022-12-18T07:46:44;2.28;;;0.40;;
41532;SDS011;27262;-35.248;149.138;2022-12-18T07:49:14;2.80;;;0.43;;
41532;SDS011;27262;-35.248;149.138;2022-12-18T07:51:45;2.67;;;0.30;;
41532;SDS011;27262;-35.248;149.138;2022-12-18T07:54:17;1.17;;;0.50;;
41532;SDS011;27262;-35.248;149.138;2022-12-18T07:56:47;3.70;;;1.58;;
41532;SDS011;27262;-35.248;149.138;2022-12-18T07:59:18;2.47;;;0.98;;
41532;SDS011;27262;-35.248;149.138;2022-12-18T08:01:48;3.15;;;1.45;;
41532;SDS011;27262;-35.248;149.138;2022-12-18T08:04:19;2.08;;;0.82;;
41532;SDS011;27262;-35.248;149.138;2022-12-18T08:06:50;3.42;;;1.27;;
41532;SDS011;27262;-35.248;149.138;2022-12-18T08:09:21;3.90;;;1.80;;
41532;SDS011;27262;-35.248;149.138;2022-12-18T08:11:52;2.67;;;1.38;;
41532;SDS011;27262;-35.248;149.138;2022-12-18T08:14:24;2.67;;;1.33;;
41532;SDS011;27262;-35.248;149.138;2022-12-18T08:16:55;3.92;;;1.42;;
41532;SDS011;27262;-35.248;149.138;2022-12-18T08:19:27;1.58;;;1.00;;
41532;SDS011;27262;-35.248;149.138;2022-12-18T08:21:59;2.08;;;1.10;;
41532;SDS011;27262;-35.248;149.138;2022-12-18T08:24:30;2.33;;;1.33;;
41532;SDS011;27262;-35.248;149.138;2022-12-18T08:27:01;4.78;;;0.98;;
41532;SDS011;27262;-35.248;149.138;2022-12-18T08:29:52;3.22;;;0.90;;
41532;SDS011;27262;-35.248;149.138;2022-12-18T08:32:24;3.20;;;1.20;;
41532;SDS011;27262;-35.248;149.138;2022-12-18T08:34:56;1.92;;;0.95;;
41532;SDS011;27262;-35.248;149.138;2022-12-18T08:37:27;2.22;;;1.05;;
41532;SDS011;27262;-35.248;149.138;2022-12-18T08:39:58;2.78;;;1.08;;
41532;SDS011;27262;-35.248;149.138;2022-12-18T08:42:30;1.88;;;0.77;;
41532;SDS011;27262;-35.248;149.138;2022-12-18T08:45:18;2.88;;;0.80;;
41532;SDS011;27262;-35.248;149.138;2022-12-18T08:47:49;2.22;;;1.02;;
41532;SDS011;27262;-35.248;149.138;2022-12-18T08:50:21;2.13;;;0.70;;
41532;SDS011;27262;-35.248;149.138;2022-12-18T08:52:51;3.08;;;0.90;;
41532;SDS011;27262;-35.248;149.138;2022-12-18T08:55:21;1.58;;;0.57;;
41532;SDS011;27262;-35.248;149.138;2022-12-18T08:57:52;2.28;;;0.88;;
41532;SDS011;27262;-35.248;149.138;2022-12-18T09:00:22;0.60;;;0.40;;
41532;SDS011;27262;-35.248;149.138;2022-12-18T09:02:53;1.95;;;0.82;;
41532;SDS011;27262;-35.248;149.138;2022-12-18T09:05:23;1.27;;;0.47;;
41532;SDS011;27262;-35.248;149.138;2022-12-18T09:07:53;3.10;;;0.65;;
41532;SDS011;27262;-35.248;149.138;2022-12-18T09:10:23;3.88;;;0.77;;
41532;SDS011;27262;-35.248;149.138;2022-12-18T09:12:54;1.75;;;0.70;;
41532;SDS011;27262;-35.248;149.138;2022-12-18T09:15:25;2.05;;;0.60;;
41532;SDS011;27262;-35.248;149.138;2022-12-18T09:17:55;2.45;;;0.70;;
41532;SDS011;27262;-35.248;149.138;2022-12-18T09:20:25;1.98;;;0.70;;
41532;SDS011;27262;-35.248;149.138;2022-12-18T09:22:58;2.03;;;0.80;;
41532;SDS011;27262;-35.248;149.138;2022-12-18T09:25:28;1.05;;;0.63;;
41532;SDS011;27262;-35.248;149.138;2022-12-18T09:28:04;1.40;;;0.60;;
41532;SDS011;27262;-35.248;149.138;2022-12-18T09:30:51;1.90;;;0.60;;
41532;SDS011;27262;-35.248;149.138;2022-12-18T09:33:22;2.65;;;0.85;;
41532;SDS011;27262;-35.248;149.138;2022-12-18T09:35:52;1.63;;;0.60;;
41532;SDS011;27262;-35.248;149.138;2022-12-18T09:38:22;1.10;;;0.50;;
41532;SDS011;27262;-35.248;149.138;2022-12-18T09:40:57;1.88;;;0.77;;
41532;SDS011;27262;-35.248;149.138;2022-12-18T09:43:39;1.35;;;0.70;;
41532;SDS011;27262;-35.248;149.138;2022-12-18T09:46:38;1.17;;;0.50;;
41532;SDS011;27262;-35.248;149.138;2022-12-18T09:49:18;1.65;;;0.60;;
41532;SDS011;27262;-35.248;149.138;2022-12-18T09:54:40;1.08;;;0.30;;
41532;SDS011;27262;-35.248;149.138;2022-12-18T09:57:13;2.22;;;0.47;;
41532;SDS011;27262;-35.248;149.138;2022-12-18T09:59:58;0.75;;;0.30;;
41532;SDS011;27262;-35.248;149.138;2022-12-18T10:02:46;3.65;;;0.52;;
41532;SDS011;27262;-35.248;149.138;2022-12-18T10:06:06;1.90;;;0.60;;
41532;SDS011;27262;-35.248;149.138;2022-12-18T10:14:02;4.20;;;0.63;;
41532;SDS011;27262;-35.248;149.138;2022-12-18T10:19:34;2.25;;;0.55;;
41532;SDS011;27262;-35.248;149.138;2022-12-18T10:24:52;2.42;;;0.60;;
41532;SDS011;27262;-35.248;149.138;2022-12-18T10:27:25;2.65;;;0.50;;
41532;SDS011;27262;-35.248;149.138;2022-12-18T10:29:57;1.45;;;0.50;;
41532;SDS011;27262;-35.248;149.138;2022-12-18T10:32:29;1.80;;;0.50;;
41532;SDS011;27262;-35.248;149.138;2022-12-18T10:35:00;2.20;;;0.40;;
41532;SDS011;27262;-35.248;149.138;2022-12-18T10:37:31;3.75;;;0.60;;
41532;SDS011;27262;-35.248;149.138;2022-12-18T10:43:22;1.92;;;0.40;;
41532;SDS011;27262;-35.248;149.138;2022-12-18T10:46:02;2.20;;;0.68;;
41532;SDS011;27262;-35.248;149.138;2022-12-18T10:51:26;3.35;;;0.57;;
41532;SDS011;27262;-35.248;149.138;2022-12-18T10:54:07;0.77;;;0.40;;
41532;SDS011;27262;-35.248;149.138;2022-12-18T10:56:52;3.17;;;0.47;;
41532;SDS011;27262;-35.248;149.138;2022-12-18T10:59:56;1.50;;;0.68;;
41532;SDS011;27262;-35.248;149.138;2022-12-18T11:02:37;1.98;;;0.60;;
41532;SDS011;27262;-35.248;149.138;2022-12-18T11:08:01;1.17;;;0.45;;
41532;SDS011;27262;-35.248;149.138;2022-12-18T11:10:33;2.55;;;0.60;;
41532;SDS011;27262;-35.248;149.138;2022-12-18T11:13:10;3.33;;;0.70;;
41532;SDS011;27262;-35.248;149.138;2022-12-18T11:15:47;2.05;;;0.32;;
41532;SDS011;27262;-35.248;149.138;2022-12-18T11:18:29;1.08;;;0.60;;
41532;SDS011;27262;-35.248;149.138;2022-12-18T11:21:07;3.25;;;0.47;;
41532;SDS011;27262;-35.248;149.138;2022-12-18T11:23:49;1.70;;;0.57;;
41532;SDS011;27262;-35.248;149.138;2022-12-18T11:26:21;1.67;;;0.75;;
41532;SDS011;27262;-35.248;149.138;2022-12-18T11:29:09;1.20;;;0.50;;
41532;SDS011;27262;-35.248;149.138;2022-12-18T11:31:47;1.38;;;0.30;;
41532;SDS011;27262;-35.248;149.138;2022-12-18T11:37:00;1.00;;;0.40;;
41532;SDS011;27262;-35.248;149.138;2022-12-18T11:39:37;2.17;;;0.38;;
41532;SDS011;27262;-35.248;149.138;2022-12-18T11:47:47;1.83;;;0.38;;
41532;SDS011;27262;-35.248;149.138;2022-12-18T11:50:26;2.05;;;0.50;;
41532;SDS011;27262;-35.248;149.138;2022-12-18T11:53:11;1.83;;;0.45;;
41532;SDS011;27262;-35.248;149.138;2022-12-18T11:58:39;0.98;;;0.40;;
41532;SDS011;27262;-35.248;149.138;2022-12-18T12:15:28;1.83;;;0.50;;
41532;SDS011;27262;-35.248;149.138;2022-12-18T12:31:39;2.63;;;0.70;;
41532;SDS011;27262;-35.248;149.138;2022-12-18T12:39:29;1.95;;;0.50;;
41532;SDS011;27262;-35.248;149.138;2022-12-18T12:42:09;2.78;;;0.50;;
41532;SDS011;27262;-35.248;149.138;2022-12-18T12:45:38;1.55;;;0.50;;
41532;SDS011;27262;-35.248;149.138;2022-12-18T12:48:19;2.40;;;0.60;;
41532;SDS011;27262;-35.248;149.138;2022-12-18T12:53:43;4.20;;;0.40;;
41532;SDS011;27262;-35.248;149.138;2022-12-18T12:56:14;1.13;;;0.50;;
41532;SDS011;27262;-35.248;149.138;2022-12-18T12:59:01;1.75;;;0.68;;
41532;SDS011;27262;-35.248;149.138;2022-12-18T13:10:12;2.47;;;0.75;;
41532;SDS011;27262;-35.248;149.138;2022-12-18T13:13:00;1.23;;;0.30;;
41532;SDS011;27262;-35.248;149.138;2022-12-18T13:23:35;4.60;;;1.10;;
41532;SDS011;27262;-35.248;149.138;2022-12-18T13:28:55;3.25;;;0.98;;
41532;SDS011;27262;-35.248;149.138;2022-12-18T13:36:55;5.63;;;1.45;;
41532;SDS011;27262;-35.248;149.138;2022-12-18T13:39:43;7.53;;;1.30;;
41532;SDS011;27262;-35.248;149.138;2022-12-18T13:45:15;5.28;;;0.90;;
41532;SDS011;27262;-35.248;149.138;2022-12-18T13:48:22;4.32;;;1.02;;
41532;SDS011;27262;-35.248;149.138;2022-12-18T13:50:56;7.68;;;1.52;;
41532;SDS011;27262;-35.248;149.138;2022-12-18T13:53:39;7.50;;;1.00;;
41532;SDS011;27262;-35.248;149.138;2022-12-18T13:56:17;7.18;;;1.20;;
41532;SDS011;27262;-35.248;149.138;2022-12-18T13:59:08;3.60;;;1.02;;
41532;SDS011;27262;-35.248;149.138;2022-12-18T14:01:54;5.07;;;1.17;;
41532;SDS011;27262;-35.248;149.138;2022-12-18T14:04:31;7.18;;;1.38;;
41532;SDS011;27262;-35.248;149.138;2022-12-18T14:10:12;5.03;;;1.15;;
41532;SDS011;27262;-35.248;149.138;2022-12-18T14:13:06;5.65;;;0.93;;
41532;SDS011;27262;-35.248;149.138;2022-12-18T14:15:42;4.90;;;0.90;;
41532;SDS011;27262;-35.248;149.138;2022-12-18T14:21:04;5.00;;;0.93;;
41532;SDS011;27262;-35.248;149.138;2022-12-18T14:26:27;9.98;;;1.35;;
41532;SDS011;27262;-35.248;149.138;2022-12-18T14:29:00;3.22;;;0.90;;
41532;SDS011;27262;-35.248;149.138;2022-12-18T14:32:33;5.55;;;1.13;;
41532;SDS011;27262;-35.248;149.138;2022-12-18T14:37:21;5.90;;;1.05;;
41532;SDS011;27262;-35.248;149.138;2022-12-18T14:42:37;4.53;;;1.02;;
41532;SDS011;27262;-35.248;149.138;2022-12-18T14:48:32;3.55;;;1.00;;
41532;SDS011;27262;-35.248;149.138;2022-12-18T14:51:18;5.35;;;1.20;;
41532;SDS011;27262;-35.248;149.138;2022-12-18T14:54:01;5.90;;;1.05;;
41532;SDS011;27262;-35.248;149.138;2022-12-18T14:56:43;3.13;;;1.08;;
41532;SDS011;27262;-35.248;149.138;2022-12-18T14:59:25;4.25;;;1.10;;
41532;SDS011;27262;-35.248;149.138;2022-12-18T15:04:53;5.68;;;1.48;;
41532;SDS011;27262;-35.248;149.138;2022-12-18T15:07:42;5.28;;;1.02;;
41532;SDS011;27262;-35.248;149.138;2022-12-18T15:10:19;6.90;;;1.30;;
41532;SDS011;27262;-35.248;149.138;2022-12-18T15:18:11;1.75;;;0.70;;
41532;SDS011;27262;-35.248;149.138;2022-12-18T15:20:49;4.30;;;1.02;;
41532;SDS011;27262;-35.248;149.138;2022-12-18T15:25:57;4.32;;;1.00;;
41532;SDS011;27262;-35.248;149.138;2022-12-18T15:33:59;6.60;;;1.55;;
41532;SDS011;27262;-35.248;149.138;2022-12-18T15:36:31;4.15;;;0.90;;
41532;SDS011;27262;-35.248;149.138;2022-12-18T15:39:05;3.28;;;1.10;;
41532;SDS011;27262;-35.248;149.138;2022-12-18T15:41:54;4.03;;;1.13;;
41532;SDS011;27262;-35.248;149.138;2022-12-18T15:45:00;2.00;;;0.80;;
41532;SDS011;27262;-35.248;149.138;2022-12-18T15:47:31;5.93;;;1.02;;
41532;SDS011;27262;-35.248;149.138;2022-12-18T15:50:02;4.45;;;1.10;;
41532;SDS011;27262;-35.248;149.138;2022-12-18T15:52:34;4.28;;;1.10;;
41532;SDS011;27262;-35.248;149.138;2022-12-18T15:55:14;2.08;;;0.82;;
41532;SDS011;27262;-35.248;149.138;2022-12-18T15:58:09;4.53;;;1.20;;
41532;SDS011;27262;-35.248;149.138;2022-12-18T16:00:41;3.03;;;0.93;;
41532;SDS011;27262;-35.248;149.138;2022-12-18T16:03:12;5.68;;;1.30;;
41532;SDS011;27262;-35.248;149.138;2022-12-18T16:05:42;2.97;;;1.08;;
41532;SDS011;27262;-35.248;149.138;2022-12-18T16:08:13;7.55;;;1.38;;
41532;SDS011;27262;-35.248;149.138;2022-12-18T16:10:46;5.38;;;1.50;;
41532;SDS011;27262;-35.248;149.138;2022-12-18T16:13:17;4.78;;;1.02;;
41532;SDS011;27262;-35.248;149.138;2022-12-18T16:15:49;6.25;;;1.20;;
41532;SDS011;27262;-35.248;149.138;2022-12-18T16:18:20;4.57;;;0.98;;
41532;SDS011;27262;-35.248;149.138;2022-12-18T16:20:50;3.78;;;0.93;;
41532;SDS011;27262;-35.248;149.138;2022-12-18T16:23:21;5.55;;;1.50;;
41532;SDS011;27262;-35.248;149.138;2022-12-18T16:25:52;5.43;;;1.13;;
41532;SDS011;27262;-35.248;149.138;2022-12-18T16:28:22;4.43;;;1.00;;
41532;SDS011;27262;-35.248;149.138;2022-12-18T16:30:52;4.93;;;1.00;;
41532;SDS011;27262;-35.248;149.138;2022-12-18T16:33:23;4.28;;;0.95;;
41532;SDS011;27262;-35.248;149.138;2022-12-18T16:35:53;3.45;;;0.88;;
41532;SDS011;27262;-35.248;149.138;2022-12-18T16:38:26;3.72;;;0.73;;
41532;SDS011;27262;-35.248;149.138;2022-12-18T16:40:56;4.28;;;0.88;;
41532;SDS011;27262;-35.248;149.138;2022-12-18T16:43:44;4.43;;;1.05;;
41532;SDS011;27262;-35.248;149.138;2022-12-18T16:46:20;3.58;;;0.82;;
41532;SDS011;27262;-35.248;149.138;2022-12-18T16:48:51;5.75;;;1.20;;
41532;SDS011;27262;-35.248;149.138;2022-12-18T16:51:21;4.35;;;1.20;;
41532;SDS011;27262;-35.248;149.138;2022-12-18T16:53:55;2.92;;;0.82;;
41532;SDS011;27262;-35.248;149.138;2022-12-18T16:56:26;4.75;;;1.23;;
41532;SDS011;27262;-35.248;149.138;2022-12-18T16:58:57;1.90;;;0.90;;
41532;SDS011;27262;-35.248;149.138;2022-12-18T17:01:29;2.17;;;0.88;;
41532;SDS011;27262;-35.248;149.138;2022-12-18T17:04:04;3.38;;;0.80;;
41532;SDS011;27262;-35.248;149.138;2022-12-18T17:06:38;3.95;;;1.00;;
41532;SDS011;27262;-35.248;149.138;2022-12-18T17:09:11;2.78;;;0.80;;
41532;SDS011;27262;-35.248;149.138;2022-12-18T17:11:43;2.10;;;0.68;;
41532;SDS011;27262;-35.248;149.138;2022-12-18T17:14:15;3.17;;;0.93;;
41532;SDS011;27262;-35.248;149.138;2022-12-18T17:16:47;2.83;;;0.70;;
41532;SDS011;27262;-35.248;149.138;2022-12-18T17:19:38;3.03;;;0.70;;
41532;SDS011;27262;-35.248;149.138;2022-12-18T17:22:08;3.35;;;1.15;;
41532;SDS011;27262;-35.248;149.138;2022-12-18T17:24:38;2.72;;;0.82;;
41532;SDS011;27262;-35.248;149.138;2022-12-18T17:27:09;3.83;;;0.82;;
41532;SDS011;27262;-35.248;149.138;2022-12-18T17:29:39;4.10;;;0.80;;
41532;SDS011;27262;-35.248;149.138;2022-12-18T17:32:14;2.65;;;0.80;;
41532;SDS011;27262;-35.248;149.138;2022-12-18T17:34:45;2.50;;;1.10;;